VLG3XY LEBL-LEPA
Flight info
| Callsign | VLG3XY |
|---|---|
| Flight time | 0h 30m |
| Altitude | 17000 |
| Route | LARPA N859 TOLSO |
| Aircraft | A320/M-SDE3FGHIRWY/LB1 |
Departure
| Time | 2026-05-05 07:38 |
|---|---|
| Airport | Josep Tarradellas Barcelona-El Prat Airport (LEBL) |
Arrival
| Time | 2026-05-05 08:08 |
|---|---|
| Airport | Palma de Mallorca Airport (LEPA) |
| Time | Latitude | Longitude | Altitude | Speed | Heading |
|---|---|---|---|---|---|
| 2026-05-05 07:14 | 41.29051 | 2.07098 | 3 ft | 0 kts | 156° |
| 2026-05-05 07:26 | 41.29052 | 2.07098 | 3 ft | 1 kts | 156° |
| 2026-05-05 07:26 | 41.29074 | 2.07085 | 4 ft | 4 kts | 156° |
| 2026-05-05 07:27 | 41.29094 | 2.07073 | 4 ft | 4 kts | 150° |
| 2026-05-05 07:27 | 41.29109 | 2.07050 | 4 ft | 4 kts | 85° |
| 2026-05-05 07:27 | 41.29102 | 2.07019 | 5 ft | 4 kts | 66° |
| 2026-05-05 07:27 | 41.29098 | 2.07006 | 4 ft | 0 kts | 66° |
| 2026-05-05 07:30 | 41.29160 | 2.07186 | 3 ft | 20 kts | 65° |
| 2026-05-05 07:30 | 41.29222 | 2.07355 | 5 ft | 21 kts | 63° |
| 2026-05-05 07:31 | 41.29285 | 2.07536 | 3 ft | 21 kts | 51° |
| 2026-05-05 07:31 | 41.29380 | 2.07664 | 3 ft | 20 kts | 64° |
| 2026-05-05 07:31 | 41.29441 | 2.07840 | 3 ft | 22 kts | 64° |
| 2026-05-05 07:31 | 41.29507 | 2.08030 | 3 ft | 23 kts | 66° |
| 2026-05-05 07:32 | 41.29567 | 2.08238 | 4 ft | 25 kts | 83° |
| 2026-05-05 07:32 | 41.29622 | 2.08447 | 3 ft | 21 kts | 69° |
| 2026-05-05 07:32 | 41.29548 | 2.08571 | 3 ft | 18 kts | 155° |
| 2026-05-05 07:32 | 41.29439 | 2.08638 | 3 ft | 16 kts | 155° |
| 2026-05-05 07:33 | 41.29345 | 2.08697 | 5 ft | 13 kts | 154° |
| 2026-05-05 07:33 | 41.29265 | 2.08745 | 6 ft | 12 kts | 156° |
| 2026-05-05 07:33 | 41.29144 | 2.08807 | 5 ft | 26 kts | 157° |
| 2026-05-05 07:33 | 41.28982 | 2.08910 | 4 ft | 25 kts | 141° |
| 2026-05-05 07:34 | 41.28997 | 2.09117 | 3 ft | 24 kts | 66° |
| 2026-05-05 07:34 | 41.29068 | 2.09325 | 4 ft | 25 kts | 65° |
| 2026-05-05 07:34 | 41.29145 | 2.09542 | 3 ft | 27 kts | 65° |
| 2026-05-05 07:34 | 41.29222 | 2.09771 | 3 ft | 28 kts | 65° |
| 2026-05-05 07:35 | 41.29311 | 2.10001 | 4 ft | 28 kts | 63° |
| 2026-05-05 07:35 | 41.29371 | 2.10217 | 3 ft | 18 kts | 107° |
| 2026-05-05 07:35 | 41.29329 | 2.10273 | 3 ft | 0 kts | 154° |
| 2026-05-05 07:36 | 41.29329 | 2.10274 | 3 ft | 0 kts | 154° |
| 2026-05-05 07:36 | 41.29270 | 2.10312 | 5 ft | 18 kts | 154° |
| 2026-05-05 07:37 | 41.29206 | 2.10284 | 5 ft | 9 kts | 244° |
| 2026-05-05 07:37 | 41.29203 | 2.10275 | 5 ft | 0 kts | 243° |
| 2026-05-05 07:37 | 41.29179 | 2.10213 | 5 ft | 34 kts | 244° |
| 2026-05-05 07:37 | 41.28975 | 2.09617 | 8 ft | 104 kts | 245° |
| 2026-05-05 07:38 | 41.28740 | 2.08935 | 8 ft | 140 kts | 246° |
| 2026-05-05 07:38 | 41.28300 | 2.07686 | 473 ft | 146 kts | 248° |
| 2026-05-05 07:38 | 41.27692 | 2.06606 | 1174 ft | 149 kts | 217° |
| 2026-05-05 07:38 | 41.26710 | 2.06197 | 1888 ft | 152 kts | 181° |
| 2026-05-05 07:39 | 41.25600 | 2.06210 | 2297 ft | 170 kts | 184° |
| 2026-05-05 07:39 | 41.24341 | 2.06141 | 2597 ft | 192 kts | 185° |
| 2026-05-05 07:39 | 41.22926 | 2.06043 | 2884 ft | 214 kts | 185° |
| 2026-05-05 07:39 | 41.21407 | 2.05937 | 3417 ft | 222 kts | 185° |
| 2026-05-05 07:40 | 41.19859 | 2.05836 | 4231 ft | 223 kts | 185° |
| 2026-05-05 07:40 | 41.18308 | 2.05728 | 5082 ft | 223 kts | 188° |
| 2026-05-05 07:40 | 41.16808 | 2.05168 | 5792 ft | 230 kts | 208° |
| 2026-05-05 07:40 | 41.15364 | 2.04164 | 6495 ft | 237 kts | 209° |
| 2026-05-05 07:41 | 41.13896 | 2.03156 | 7341 ft | 238 kts | 209° |
| 2026-05-05 07:41 | 41.12418 | 2.02144 | 8218 ft | 239 kts | 209° |
| 2026-05-05 07:41 | 41.10935 | 2.01132 | 9115 ft | 240 kts | 209° |
| 2026-05-05 07:41 | 41.09444 | 2.00118 | 9986 ft | 241 kts | 209° |
| 2026-05-05 07:42 | 41.07944 | 1.99101 | 10770 ft | 243 kts | 209° |
| 2026-05-05 07:42 | 41.06327 | 1.98330 | 11388 ft | 257 kts | 195° |
| 2026-05-05 07:42 | 41.04510 | 1.97866 | 11647 ft | 281 kts | 193° |
| 2026-05-05 07:42 | 41.02505 | 1.97380 | 11876 ft | 305 kts | 193° |
| 2026-05-05 07:43 | 41.00346 | 1.96865 | 12159 ft | 324 kts | 193° |
| 2026-05-05 07:43 | 40.98095 | 1.96333 | 12777 ft | 332 kts | 193° |
| 2026-05-05 07:43 | 40.95770 | 1.96119 | 13467 ft | 341 kts | 178° |
| 2026-05-05 07:43 | 40.93449 | 1.96927 | 14133 ft | 353 kts | 159° |
| 2026-05-05 07:44 | 40.91404 | 1.98803 | 14748 ft | 367 kts | 138° |
| 2026-05-05 07:44 | 40.89754 | 2.01417 | 15375 ft | 374 kts | 133° |
| 2026-05-05 07:44 | 40.88137 | 2.04143 | 15986 ft | 378 kts | 133° |
| 2026-05-05 07:44 | 40.86526 | 2.06909 | 16588 ft | 383 kts | 133° |
| 2026-05-05 07:45 | 40.84896 | 2.09726 | 16892 ft | 387 kts | 133° |
| 2026-05-05 07:45 | 40.83250 | 2.12561 | 16951 ft | 392 kts | 133° |
| 2026-05-05 07:45 | 40.81582 | 2.15415 | 16956 ft | 394 kts | 133° |
| 2026-05-05 07:45 | 40.79906 | 2.18274 | 16959 ft | 394 kts | 133° |
| 2026-05-05 07:46 | 40.78211 | 2.21121 | 16963 ft | 393 kts | 136° |
| 2026-05-05 07:46 | 40.76279 | 2.23619 | 16964 ft | 386 kts | 147° |
| 2026-05-05 07:46 | 40.74086 | 2.25607 | 16961 ft | 381 kts | 155° |
| 2026-05-05 07:46 | 40.71827 | 2.27425 | 16957 ft | 381 kts | 154° |
| 2026-05-05 07:47 | 40.69564 | 2.29255 | 16957 ft | 381 kts | 154° |
| 2026-05-05 07:47 | 40.67302 | 2.31091 | 16956 ft | 381 kts | 154° |
| 2026-05-05 07:47 | 40.65071 | 2.32905 | 16957 ft | 382 kts | 154° |
| 2026-05-05 07:47 | 40.62733 | 2.34603 | 16950 ft | 376 kts | 162° |
| 2026-05-05 07:48 | 40.60315 | 2.35698 | 16951 ft | 370 kts | 171° |
| 2026-05-05 07:48 | 40.57829 | 2.36559 | 16953 ft | 370 kts | 171° |
| 2026-05-05 07:48 | 40.55340 | 2.37420 | 16946 ft | 370 kts | 171° |
| 2026-05-05 07:48 | 40.52851 | 2.38282 | 16946 ft | 370 kts | 171° |
| 2026-05-05 07:49 | 40.50363 | 2.39148 | 16944 ft | 370 kts | 171° |
| 2026-05-05 07:49 | 40.47873 | 2.40015 | 16945 ft | 370 kts | 171° |
| 2026-05-05 07:49 | 40.45382 | 2.40886 | 16947 ft | 370 kts | 171° |
| 2026-05-05 07:49 | 40.42896 | 2.41756 | 16947 ft | 370 kts | 171° |
| 2026-05-05 07:50 | 40.40400 | 2.42627 | 16954 ft | 370 kts | 171° |
| 2026-05-05 07:50 | 40.37908 | 2.43492 | 16952 ft | 370 kts | 171° |
| 2026-05-05 07:50 | 40.35410 | 2.44355 | 16950 ft | 371 kts | 171° |
| 2026-05-05 07:50 | 40.32920 | 2.45220 | 16950 ft | 370 kts | 171° |
| 2026-05-05 07:51 | 40.30480 | 2.46075 | 16874 ft | 356 kts | 171° |
| 2026-05-05 07:51 | 40.28123 | 2.46905 | 16635 ft | 347 kts | 171° |
| 2026-05-05 07:51 | 40.25810 | 2.47714 | 16247 ft | 342 kts | 171° |
| 2026-05-05 07:51 | 40.23541 | 2.48679 | 15819 ft | 345 kts | 162° |
| 2026-05-05 07:52 | 40.21420 | 2.50182 | 15395 ft | 349 kts | 151° |
| 2026-05-05 07:52 | 40.19544 | 2.52213 | 14985 ft | 353 kts | 139° |
| 2026-05-05 07:52 | 40.17998 | 2.54720 | 14589 ft | 356 kts | 127° |
| 2026-05-05 07:52 | 40.16765 | 2.57487 | 14201 ft | 356 kts | 124° |
| 2026-05-05 07:53 | 40.15541 | 2.60281 | 13826 ft | 353 kts | 124° |
| 2026-05-05 07:53 | 40.14319 | 2.63048 | 13411 ft | 350 kts | 124° |
| 2026-05-05 07:53 | 40.13102 | 2.65784 | 12998 ft | 347 kts | 124° |
| 2026-05-05 07:53 | 40.11903 | 2.68481 | 12817 ft | 337 kts | 124° |
| 2026-05-05 07:54 | 40.10747 | 2.71095 | 12682 ft | 327 kts | 124° |
| 2026-05-05 07:54 | 40.09627 | 2.73630 | 12556 ft | 317 kts | 124° |
| 2026-05-05 07:54 | 40.08534 | 2.76095 | 12320 ft | 311 kts | 124° |
| 2026-05-05 07:54 | 40.07451 | 2.78531 | 12009 ft | 309 kts | 124° |
| 2026-05-05 07:55 | 40.06377 | 2.80945 | 11685 ft | 306 kts | 124° |
| 2026-05-05 07:55 | 40.05310 | 2.83340 | 11375 ft | 304 kts | 124° |
| 2026-05-05 07:55 | 40.04252 | 2.85714 | 11066 ft | 302 kts | 124° |
| 2026-05-05 07:55 | 40.03199 | 2.88076 | 10747 ft | 300 kts | 124° |
| 2026-05-05 07:56 | 40.02157 | 2.90415 | 10424 ft | 297 kts | 124° |
| 2026-05-05 07:56 | 40.01120 | 2.92744 | 10113 ft | 295 kts | 124° |
| 2026-05-05 07:56 | 40.00104 | 2.95018 | 9800 ft | 293 kts | 124° |
| 2026-05-05 07:56 | 39.99083 | 2.97302 | 9447 ft | 291 kts | 124° |
| 2026-05-05 07:57 | 39.98066 | 2.99576 | 9077 ft | 289 kts | 123° |
| 2026-05-05 07:57 | 39.97054 | 3.01835 | 8706 ft | 287 kts | 123° |
| 2026-05-05 07:57 | 39.96047 | 3.04082 | 8335 ft | 286 kts | 123° |
| 2026-05-05 07:57 | 39.95045 | 3.06316 | 7969 ft | 284 kts | 123° |
| 2026-05-05 07:58 | 39.93916 | 3.08402 | 7577 ft | 279 kts | 137° |
| 2026-05-05 07:58 | 39.92406 | 3.09936 | 7209 ft | 274 kts | 154° |
| 2026-05-05 07:58 | 39.90644 | 3.10807 | 6828 ft | 270 kts | 171° |
| 2026-05-05 07:58 | 39.88790 | 3.10971 | 6438 ft | 266 kts | 186° |
| 2026-05-05 07:59 | 39.86955 | 3.10735 | 6137 ft | 261 kts | 187° |
| 2026-05-05 07:59 | 39.85239 | 3.10519 | 5964 ft | 252 kts | 187° |
| 2026-05-05 07:59 | 39.83543 | 3.10308 | 5835 ft | 235 kts | 187° |
| 2026-05-05 07:59 | 39.81989 | 3.10118 | 5734 ft | 222 kts | 187° |
| 2026-05-05 08:00 | 39.80477 | 3.09935 | 5605 ft | 215 kts | 187° |
| 2026-05-05 08:00 | 39.79005 | 3.09756 | 5422 ft | 211 kts | 187° |
| 2026-05-05 08:00 | 39.77549 | 3.09578 | 5195 ft | 210 kts | 187° |
| 2026-05-05 08:00 | 39.76079 | 3.09398 | 4954 ft | 209 kts | 187° |
| 2026-05-05 08:01 | 39.74655 | 3.09224 | 4729 ft | 208 kts | 187° |
| 2026-05-05 08:01 | 39.73218 | 3.09048 | 4484 ft | 207 kts | 187° |
| 2026-05-05 08:01 | 39.71816 | 3.08687 | 4244 ft | 205 kts | 202° |
| 2026-05-05 08:01 | 39.70600 | 3.07749 | 3999 ft | 203 kts | 222° |
| 2026-05-05 08:02 | 39.69713 | 3.06335 | 3760 ft | 203 kts | 238° |
| 2026-05-05 08:02 | 39.68985 | 3.04777 | 3567 ft | 200 kts | 238° |
| 2026-05-05 08:02 | 39.68283 | 3.03270 | 3470 ft | 189 kts | 238° |
| 2026-05-05 08:02 | 39.67622 | 3.01859 | 3346 ft | 178 kts | 237° |
| 2026-05-05 08:03 | 39.66997 | 3.00524 | 3223 ft | 167 kts | 237° |
| 2026-05-05 08:03 | 39.66420 | 2.99292 | 3114 ft | 159 kts | 237° |
| 2026-05-05 08:03 | 39.65844 | 2.98066 | 3039 ft | 160 kts | 238° |
| 2026-05-05 08:03 | 39.65271 | 2.96842 | 3004 ft | 158 kts | 237° |
| 2026-05-05 08:04 | 39.64701 | 2.95629 | 3006 ft | 158 kts | 238° |
| 2026-05-05 08:04 | 39.64130 | 2.94412 | 3006 ft | 158 kts | 237° |
| 2026-05-05 08:04 | 39.63559 | 2.93197 | 2945 ft | 157 kts | 237° |
| 2026-05-05 08:04 | 39.62990 | 2.91985 | 2790 ft | 157 kts | 237° |
| 2026-05-05 08:05 | 39.62425 | 2.90784 | 2598 ft | 156 kts | 237° |
| 2026-05-05 08:05 | 39.61860 | 2.89581 | 2410 ft | 156 kts | 237° |
| 2026-05-05 08:05 | 39.61294 | 2.88377 | 2203 ft | 156 kts | 238° |
| 2026-05-05 08:05 | 39.60729 | 2.87178 | 1995 ft | 157 kts | 237° |
| 2026-05-05 08:06 | 39.60165 | 2.85978 | 1788 ft | 155 kts | 238° |
| 2026-05-05 08:06 | 39.59609 | 2.84799 | 1583 ft | 156 kts | 236° |
| 2026-05-05 08:06 | 39.59049 | 2.83609 | 1371 ft | 150 kts | 237° |
| 2026-05-05 08:06 | 39.58516 | 2.82477 | 1164 ft | 145 kts | 236° |
| 2026-05-05 08:07 | 39.57994 | 2.81370 | 972 ft | 143 kts | 237° |
| 2026-05-05 08:07 | 39.57474 | 2.80268 | 782 ft | 143 kts | 237° |
| 2026-05-05 08:07 | 39.56959 | 2.79175 | 596 ft | 142 kts | 236° |
| 2026-05-05 08:07 | 39.56447 | 2.78091 | 408 ft | 141 kts | 237° |
| 2026-05-05 08:08 | 39.55939 | 2.77014 | 222 ft | 139 kts | 238° |
| 2026-05-05 08:08 | 39.55438 | 2.75953 | 45 ft | 137 kts | 238° |
| 2026-05-05 08:08 | 39.55045 | 2.75121 | 36 ft | 68 kts | 238° |
| 2026-05-05 08:08 | 39.54849 | 2.74702 | 38 ft | 47 kts | 241° |
| 2026-05-05 08:09 | 39.54802 | 2.74442 | 38 ft | 17 kts | 269° |
| 2026-05-05 08:09 | 39.54800 | 2.74280 | 38 ft | 18 kts | 269° |
| 2026-05-05 08:09 | 39.54837 | 2.74121 | 38 ft | 19 kts | 311° |
| 2026-05-05 08:09 | 39.54944 | 2.74022 | 38 ft | 8 kts | 301° |
| 2026-05-05 08:10 | 39.54935 | 2.73934 | 38 ft | 14 kts | 271° |
| 2026-05-05 08:10 | 39.54905 | 2.73811 | 38 ft | 15 kts | 250° |
| 2026-05-05 08:10 | 39.54901 | 2.73795 | 38 ft | 0 kts | 250° |